Airfield :
LOGIN :

Register | Disclaimer

   EN    FR    IT 

 










Legend :    VFR   Marginal VFR   IFR   Intensive IFR   Very Intensive IFR
Visi :
Ceiling :
>= 8 km
>= 3000ft
5 to 8 km
1000 to 3000 ft
1500m to 5 km
500 to 1000 ft
800 to 1500m
200 to 500 ft
< 800m
< 200 ft
Symbols :   Thunderstorms  Fog  Heavy snow  Heavy precipitations  Wind > 20 kt
SIGMETs :     Misc.  Thunderstorms  Icing  Turbulence  Mountain Waves  Volcanic Ashes






- Airport Elevation : 24 ft
- IATA code : SGD


EKSB - Sonderborg

CURRENT METAR :
  • 290420Z AUTO 25003KT 9999 NCD 09/08 Q1009

EXPIRED METARs :
  • 290350Z AUTO 24004KT 9999 FEW140/// 08/07 Q1009
  • 290320Z AUTO 24005KT 9999 BKN140/// 08/07 Q1009
  • 290250Z AUTO 24004KT 9999 OVC140/// 08/07 Q1009
  • 290220Z AUTO 25004KT 9999 OVC140/// 08/07 Q1009
  • 290150Z AUTO 24004KT 210V270 9999 OVC150/// 08/07 Q1010

Expired Forecast.



MET'MAP, your aeronautical weather chart ! - Copyright ORBIFLY December 2007 - Disclaimer

ORBIFLY MET'MAP TEAM :

Programming & Development : Alexandra Zaïnal
Original concept : Baudouin d'Aumeries
Technical & hardware support : Manuel Goepfert
Assistance : Marc-Olivier Méhu

Contact : metmap@orbifly.com




SOURCES & CREDITS :

   NOAA